createdAt,value
2019-03-25T00:01:05.003Z,85.13
2019-03-25T00:03:34.612Z,85.01
2019-03-25T00:06:04.230Z,85.41
2019-03-25T00:08:34.086Z,85.55
2019-03-25T00:11:03.780Z,85.69
2019-03-25T00:13:33.389Z,85.31
2019-03-25T00:16:03.004Z,85.47
2019-03-25T00:18:32.680Z,85.56
2019-03-25T00:21:02.278Z,85.30
2019-03-25T00:23:31.904Z,85.29
2019-03-25T00:26:01.532Z,85.94
2019-03-25T00:28:31.164Z,85.22
2019-03-25T00:31:00.814Z,85.41
2019-03-25T00:33:30.486Z,84.81
2019-03-25T00:36:01.047Z,85.13
2019-03-25T00:38:30.669Z,85.27
2019-03-25T00:41:00.276Z,85.81
2019-03-25T00:43:29.908Z,85.90
2019-03-25T00:45:59.524Z,86.42
2019-03-25T00:48:29.149Z,86.08
2019-03-25T00:50:58.759Z,85.70
2019-03-25T00:53:28.391Z,86.38
2019-03-25T00:55:57.998Z,86.39
2019-03-25T00:58:27.634Z,86.44
2019-03-25T01:00:57.241Z,85.97
2019-03-25T01:03:26.877Z,85.93
2019-03-25T01:05:56.497Z,85.99
2019-03-25T01:08:26.156Z,86.45
2019-03-25T01:10:55.768Z,87.22
2019-03-25T01:13:25.400Z,87.03
2019-03-25T01:15:55.008Z,87.05
2019-03-25T01:18:24.640Z,85.82
2019-03-25T01:20:54.244Z,86.56
2019-03-25T01:23:23.872Z,86.89
2019-03-25T01:25:53.478Z,87.36
2019-03-25T01:28:23.118Z,87.59
2019-03-25T01:30:52.725Z,87.24
2019-03-25T01:33:22.361Z,87.46
2019-03-25T01:35:51.985Z,87.67
2019-03-25T01:38:21.650Z,87.39
2019-03-25T01:40:51.282Z,86.54
2019-03-25T01:43:20.882Z,85.72
2019-03-25T01:45:50.510Z,85.73
2019-03-25T01:48:20.125Z,85.34
2019-03-25T01:50:49.750Z,86.33
2019-03-25T01:53:19.355Z,86.66
2019-03-25T01:55:48.987Z,85.55
2019-03-25T01:58:18.598Z,84.90
2019-03-25T02:00:48.217Z,85.46
2019-03-25T02:03:17.818Z,85.27
2019-03-25T02:05:47.450Z,85.17
2019-03-25T02:08:17.047Z,84.75
2019-03-25T02:10:46.701Z,85.11
2019-03-25T02:13:16.305Z,85.68
2019-03-25T02:15:45.932Z,85.88
2019-03-25T02:18:15.524Z,84.93
2019-03-25T02:20:45.153Z,84.30
2019-03-25T02:23:14.837Z,84.27
2019-03-25T02:25:44.549Z,84.79
2019-03-25T02:28:14.149Z,85.39
2019-03-25T02:30:43.776Z,85.48
2019-03-25T02:33:13.418Z,86.51
2019-03-25T02:35:43.045Z,87.12
2019-03-25T02:38:12.637Z,86.55
2019-03-25T02:40:42.235Z,85.35
2019-03-25T02:43:11.863Z,84.97
2019-03-25T02:45:41.463Z,86.22
2019-03-25T02:48:11.089Z,85.57
2019-03-25T02:50:40.688Z,85.83
2019-03-25T02:53:10.318Z,85.15
2019-03-25T02:55:41.891Z,84.21
2019-03-25T02:58:11.266Z,83.63
2019-03-25T03:00:41.079Z,82.26
2019-03-25T03:03:11.096Z,81.35
2019-03-25T03:05:40.713Z,80.95
2019-03-25T03:08:10.347Z,80.33
2019-03-25T03:10:39.992Z,80.07
2019-03-25T03:13:09.606Z,79.68
2019-03-25T03:15:39.209Z,79.93
2019-03-25T03:18:08.845Z,79.58
2019-03-25T03:20:38.448Z,79.41
2019-03-25T03:23:08.067Z,79.54
2019-03-25T03:25:37.669Z,79.35
2019-03-25T03:28:07.296Z,78.82
2019-03-25T03:30:36.895Z,78.53
2019-03-25T03:33:06.523Z,79.04
2019-03-25T03:35:36.125Z,78.81
2019-03-25T03:38:05.756Z,79.20
2019-03-25T03:40:35.360Z,78.22
2019-03-25T03:43:05.049Z,78.27
2019-03-25T03:45:34.667Z,78.00
2019-03-25T03:48:04.577Z,77.91
2019-03-25T03:50:34.185Z,78.11
2019-03-25T03:53:04.015Z,78.18
2019-03-25T03:55:34.518Z,78.32
2019-03-25T03:58:04.252Z,78.96
2019-03-25T04:00:35.447Z,79.47
2019-03-25T04:03:05.047Z,79.67
2019-03-25T04:05:34.764Z,79.68
2019-03-25T04:08:05.589Z,79.73
2019-03-25T04:10:35.252Z,80.02
2019-03-25T04:13:04.839Z,79.91
2019-03-25T04:15:34.600Z,79.34
2019-03-25T04:18:04.210Z,79.66
2019-03-25T04:20:33.911Z,79.50
2019-03-25T04:23:03.507Z,79.13
2019-03-25T04:25:33.134Z,78.76
2019-03-25T04:28:02.750Z,79.04
2019-03-25T04:30:32.362Z,79.05
2019-03-25T04:33:01.969Z,78.90
2019-03-25T04:35:31.582Z,79.16
2019-03-25T04:38:01.190Z,79.45
2019-03-25T04:40:30.918Z,79.47
2019-03-25T04:43:00.545Z,79.19
2019-03-25T04:45:30.149Z,79.16
2019-03-25T04:47:59.759Z,79.18
2019-03-25T04:50:29.383Z,79.41
2019-03-25T04:52:58.994Z,79.41
2019-03-25T04:55:28.609Z,79.86
2019-03-25T04:57:58.282Z,80.16
2019-03-25T05:00:35.585Z,80.71
2019-03-25T05:03:05.286Z,81.05
2019-03-25T05:05:36.323Z,80.64
2019-03-25T05:08:07.141Z,80.62
2019-03-25T05:10:36.784Z,80.75
2019-03-25T05:13:06.399Z,81.15
2019-03-25T05:15:36.001Z,80.48
2019-03-25T05:18:05.626Z,80.32
2019-03-25T05:20:35.238Z,80.59
2019-03-25T05:23:04.869Z,80.72
2019-03-25T05:25:34.741Z,80.60
2019-03-25T05:28:04.362Z,80.72
2019-03-25T05:30:34.296Z,81.12
2019-03-25T05:33:03.980Z,80.76
2019-03-25T05:35:33.621Z,80.95
2019-03-25T05:38:03.241Z,80.91
2019-03-25T05:40:32.853Z,81.19
2019-03-25T05:43:02.498Z,81.28
2019-03-25T05:45:32.099Z,81.52
2019-03-25T05:48:01.718Z,81.55
2019-03-25T05:50:31.386Z,81.87
2019-03-25T05:53:01.008Z,82.01
2019-03-25T05:55:30.634Z,82.42
2019-03-25T05:58:00.256Z,82.54
2019-03-25T06:00:32.554Z,82.77
2019-03-25T06:03:02.187Z,82.90
2019-03-25T06:05:31.811Z,83.48
2019-03-25T06:08:01.465Z,83.41
2019-03-25T06:10:31.093Z,83.05
2019-03-25T06:13:00.731Z,83.18
2019-03-25T06:15:30.343Z,82.68
2019-03-25T06:17:59.968Z,82.46
2019-03-25T06:20:29.575Z,82.51
2019-03-25T06:22:59.199Z,82.78
2019-03-25T06:25:28.807Z,83.37
2019-03-25T06:27:58.428Z,82.89
2019-03-25T06:30:28.038Z,83.14
2019-03-25T06:32:57.662Z,83.05
2019-03-25T06:35:27.286Z,83.17
2019-03-25T06:37:56.908Z,83.33
2019-03-25T06:40:26.518Z,83.27
2019-03-25T06:42:56.150Z,82.65
2019-03-25T06:45:25.755Z,81.94
2019-03-25T06:47:55.363Z,82.11
2019-03-25T06:50:24.996Z,81.95
2019-03-25T06:52:54.597Z,81.44
2019-03-25T06:55:24.221Z,81.77
2019-03-25T06:57:53.831Z,82.24
2019-03-25T07:00:23.478Z,82.06
2019-03-25T07:02:53.083Z,82.58
2019-03-25T07:05:22.726Z,81.89
2019-03-25T07:07:52.347Z,81.93
2019-03-25T07:10:37.604Z,81.37
2019-03-25T07:13:08.506Z,81.17
2019-03-25T07:15:38.135Z,81.40
2019-03-25T07:18:07.758Z,81.58
2019-03-25T07:20:37.390Z,82.22
2019-03-25T07:23:06.995Z,81.87
2019-03-25T07:25:36.975Z,80.68
2019-03-25T07:28:06.572Z,80.15
2019-03-25T07:30:36.207Z,77.80
2019-03-25T07:33:05.814Z,74.70
2019-03-25T07:35:35.439Z,74.47
2019-03-25T07:38:05.040Z,74.31
2019-03-25T07:40:34.667Z,75.74
2019-03-25T07:43:04.356Z,78.11
2019-03-25T07:45:33.974Z,80.68
2019-03-25T07:48:04.237Z,81.90
2019-03-25T07:50:33.985Z,83.43
2019-03-25T07:53:03.589Z,85.93
2019-03-25T07:55:33.236Z,86.75
2019-03-25T07:58:02.862Z,85.51
2019-03-25T08:00:32.437Z,76.81
2019-03-25T08:03:02.078Z,56.50
2019-03-25T08:05:31.680Z,55.58
2019-03-25T08:08:01.279Z,53.09
2019-03-25T08:10:35.161Z,48.87
2019-03-25T08:13:05.240Z,55.46
2019-03-25T08:15:35.242Z,62.57
2019-03-25T08:18:05.853Z,66.71
2019-03-25T08:20:35.487Z,65.60
2019-03-25T08:23:05.099Z,66.82
2019-03-25T08:25:34.696Z,67.59
2019-03-25T08:28:04.521Z,67.75
2019-03-25T08:30:34.126Z,67.52
2019-03-25T08:33:03.759Z,67.02
2019-03-25T08:35:33.353Z,66.98
2019-03-25T08:38:02.976Z,65.11
2019-03-25T08:40:32.569Z,61.10
2019-03-25T08:43:02.192Z,61.33
2019-03-25T08:45:31.797Z,61.12
2019-03-25T08:48:01.434Z,55.37
2019-03-25T08:50:31.046Z,58.08
2019-03-25T08:53:00.681Z,61.84
2019-03-25T08:55:30.292Z,55.95
2019-03-25T08:58:11.271Z,46.65
2019-03-25T09:00:31.262Z,44.16
2019-03-25T09:03:00.898Z,37.26
2019-03-25T09:05:30.504Z,36.79
2019-03-25T09:08:00.154Z,32.13
2019-03-25T09:10:29.786Z,38.42
2019-03-25T09:12:59.426Z,44.58
2019-03-25T09:15:29.031Z,46.07
2019-03-25T09:17:58.684Z,48.67
2019-03-25T09:20:28.261Z,44.92
2019-03-25T09:22:57.880Z,49.30
2019-03-25T09:25:27.513Z,51.05
2019-03-25T09:27:57.984Z,51.55
2019-03-25T09:31:16.014Z,54.11
2019-03-25T09:33:45.993Z,54.48
2019-03-25T09:36:16.383Z,55.83
2019-03-25T09:38:45.994Z,54.36
2019-03-25T09:41:15.606Z,53.33
2019-03-25T09:43:45.228Z,54.80
2019-03-25T09:46:14.832Z,54.08
2019-03-25T09:48:44.443Z,55.17
2019-03-25T09:51:14.055Z,54.10
2019-03-25T09:53:43.684Z,50.94
2019-03-25T09:56:13.398Z,48.52
2019-03-25T09:58:43.102Z,47.66
2019-03-25T10:01:12.717Z,49.91
2019-03-25T10:03:42.336Z,52.11
2019-03-25T10:06:11.934Z,53.47
2019-03-25T10:08:41.563Z,54.08
2019-03-25T10:11:11.305Z,47.16
2019-03-25T10:13:40.925Z,48.03
2019-03-25T10:16:10.530Z,48.01
2019-03-25T10:18:40.144Z,49.42
2019-03-25T10:21:09.749Z,46.62
2019-03-25T10:23:39.624Z,44.51
2019-03-25T10:26:09.175Z,41.66
2019-03-25T10:28:47.901Z,42.60
2019-03-25T10:31:10.239Z,46.65
2019-03-25T10:33:39.881Z,47.37
2019-03-25T10:36:09.749Z,48.78
2019-03-25T10:38:39.372Z,52.17
2019-03-25T10:41:08.982Z,54.08
2019-03-25T10:43:38.611Z,55.36
2019-03-25T10:46:08.209Z,51.54
2019-03-25T10:48:37.834Z,43.63
2019-03-25T10:51:07.541Z,35.31
2019-03-25T10:53:37.177Z,33.69
2019-03-25T10:56:06.783Z,30.10
2019-03-25T10:58:36.427Z,27.93
2019-03-25T11:01:06.353Z,30.10
2019-03-25T11:03:35.993Z,33.25
2019-03-25T11:06:05.625Z,38.31
2019-03-25T11:08:35.271Z,41.92
2019-03-25T11:11:06.356Z,45.34
2019-03-25T11:13:36.118Z,49.68
2019-03-25T11:16:05.720Z,65.85
2019-03-25T11:18:35.340Z,74.39
2019-03-25T11:21:04.941Z,81.69
2019-03-25T11:23:34.550Z,81.82
2019-03-25T11:26:04.175Z,61.87
2019-03-25T11:28:33.794Z,49.19
2019-03-25T11:31:03.430Z,45.89
2019-03-25T11:33:33.053Z,43.59
2019-03-25T11:36:02.964Z,42.94
2019-03-25T11:38:32.574Z,41.59
2019-03-25T11:41:02.205Z,36.43
2019-03-25T11:43:31.829Z,39.01
2019-03-25T11:46:01.499Z,35.35
2019-03-25T11:48:31.121Z,35.35
2019-03-25T11:51:00.747Z,35.73
2019-03-25T11:53:30.357Z,42.47
2019-03-25T11:55:59.994Z,50.41
2019-03-25T11:58:29.616Z,57.61
2019-03-25T12:00:59.234Z,63.94
2019-03-25T12:03:28.844Z,66.66
2019-03-25T12:05:58.464Z,66.27
2019-03-25T12:08:28.071Z,67.23
2019-03-25T12:10:57.717Z,67.88
2019-03-25T12:13:27.343Z,66.91
2019-03-25T12:15:56.957Z,69.95
2019-03-25T12:18:26.569Z,73.83
2019-03-25T12:20:56.204Z,72.24
2019-03-25T12:23:26.659Z,60.52
2019-03-25T12:25:56.428Z,57.99
2019-03-25T12:28:26.031Z,52.94
2019-03-25T12:30:55.671Z,44.58
2019-03-25T12:33:25.916Z,39.58
2019-03-25T12:35:55.575Z,39.61
2019-03-25T12:38:25.195Z,39.55
2019-03-25T12:40:54.837Z,38.43
2019-03-25T12:43:24.455Z,39.31
2019-03-25T12:45:54.091Z,37.58
2019-03-25T12:48:23.712Z,35.49
2019-03-25T12:50:53.345Z,35.90
2019-03-25T12:53:22.974Z,33.53
2019-03-25T12:55:52.586Z,37.67
2019-03-25T12:58:22.227Z,45.50
2019-03-25T13:00:51.844Z,43.38
2019-03-25T13:03:21.483Z,45.42
2019-03-25T13:05:51.096Z,50.63
2019-03-25T13:08:20.730Z,56.01
2019-03-25T13:10:50.618Z,59.08
2019-03-25T13:13:20.240Z,62.62
2019-03-25T13:15:49.835Z,64.10
2019-03-25T13:18:19.459Z,65.88
2019-03-25T13:20:49.069Z,66.70
2019-03-25T13:23:18.705Z,66.00
2019-03-25T13:25:48.367Z,67.19
2019-03-25T13:28:17.986Z,65.93
2019-03-25T13:30:47.595Z,65.19
2019-03-25T13:33:17.203Z,58.54
2019-03-25T13:35:46.813Z,47.78
2019-03-25T13:38:16.459Z,49.65
2019-03-25T13:40:46.079Z,55.83
2019-03-25T13:43:15.916Z,57.93
2019-03-25T13:45:45.506Z,61.88
2019-03-25T13:48:15.138Z,70.60
2019-03-25T13:50:44.738Z,79.26
2019-03-25T13:53:14.366Z,84.30
2019-03-25T13:55:44.056Z,82.98
2019-03-25T13:58:13.673Z,76.48
2019-03-25T14:00:43.276Z,60.39
2019-03-25T14:03:13.235Z,56.19
2019-03-25T14:05:42.843Z,50.01
2019-03-25T14:08:12.475Z,52.41
2019-03-25T14:10:42.112Z,58.37
2019-03-25T14:13:11.734Z,65.45
2019-03-25T14:15:41.401Z,69.56
2019-03-25T14:18:11.290Z,74.68
2019-03-25T14:20:40.941Z,75.18
2019-03-25T14:23:10.520Z,78.03
2019-03-25T14:25:40.125Z,78.25
2019-03-25T14:28:09.729Z,81.46
2019-03-25T14:30:39.378Z,85.26
2019-03-25T14:33:09.189Z,88.38
2019-03-25T14:35:38.810Z,88.86
2019-03-25T14:38:08.405Z,87.57
2019-03-25T14:40:38.025Z,83.92
2019-03-25T14:43:07.624Z,80.97
2019-03-25T14:45:37.252Z,81.64
2019-03-25T14:48:06.880Z,83.33
2019-03-25T14:50:36.499Z,82.66
2019-03-25T14:53:06.594Z,80.95
2019-03-25T14:55:36.220Z,75.86
2019-03-25T14:58:05.833Z,71.14
2019-03-25T15:00:35.461Z,74.57
2019-03-25T15:03:05.062Z,71.83
2019-03-25T15:05:34.690Z,64.04
2019-03-25T15:08:04.319Z,67.09
2019-03-25T15:10:33.982Z,63.48
2019-03-25T15:13:03.578Z,68.32
2019-03-25T15:15:33.306Z,68.57
2019-03-25T15:18:02.903Z,66.52
2019-03-25T15:20:32.531Z,68.67
2019-03-25T15:23:02.126Z,73.30
2019-03-25T15:25:31.756Z,74.71
2019-03-25T15:28:01.369Z,77.49
2019-03-25T15:30:35.842Z,77.40
2019-03-25T15:33:02.400Z,77.97
2019-03-25T15:35:32.033Z,77.12
2019-03-25T15:38:01.654Z,77.19
2019-03-25T15:40:31.331Z,77.70
2019-03-25T15:43:01.265Z,77.85
2019-03-25T15:45:30.890Z,81.13
2019-03-25T15:48:00.545Z,83.95
2019-03-25T15:50:30.142Z,85.75
2019-03-25T15:52:59.775Z,85.11
2019-03-25T15:55:29.384Z,88.03
2019-03-25T15:57:59.001Z,87.41
2019-03-25T16:00:28.648Z,90.45
2019-03-25T16:02:58.271Z,88.87
2019-03-25T16:05:27.877Z,89.81
2019-03-25T16:07:57.501Z,89.82
2019-03-25T16:10:27.138Z,90.82
2019-03-25T16:12:56.795Z,92.14
2019-03-25T16:15:40.027Z,91.47
2019-03-25T16:18:09.962Z,92.90
2019-03-25T16:20:41.118Z,93.28
2019-03-25T16:23:10.742Z,93.35
2019-03-25T16:25:40.379Z,94.38
2019-03-25T16:28:10.004Z,95.55
2019-03-25T16:30:39.616Z,95.80
2019-03-25T16:33:09.252Z,95.50
2019-03-25T16:35:38.915Z,96.01
2019-03-25T16:38:08.563Z,95.62
2019-03-25T16:40:38.187Z,95.33
2019-03-25T16:43:07.813Z,95.33
2019-03-25T16:45:37.420Z,94.59
2019-03-25T16:48:07.052Z,93.87
2019-03-25T16:50:36.656Z,94.83
2019-03-25T16:53:06.279Z,94.87
2019-03-25T16:55:35.874Z,95.34
2019-03-25T16:58:05.501Z,95.18
2019-03-25T17:00:35.104Z,96.91
2019-03-25T17:03:04.724Z,97.56
2019-03-25T17:05:34.336Z,96.97
2019-03-25T17:08:03.963Z,96.47
2019-03-25T17:10:33.569Z,96.65
2019-03-25T17:13:03.293Z,97.07
2019-03-25T17:15:32.910Z,97.20
2019-03-25T17:18:02.531Z,97.11
2019-03-25T17:20:32.137Z,97.41
2019-03-25T17:23:01.734Z,97.86
2019-03-25T17:25:31.351Z,98.82
2019-03-25T17:28:01.021Z,98.98
2019-03-25T17:30:30.639Z,98.81
2019-03-25T17:33:00.236Z,99.17
2019-03-25T17:35:29.859Z,98.64
2019-03-25T17:37:59.464Z,98.31
2019-03-25T17:40:29.188Z,98.38
2019-03-25T17:42:58.884Z,99.19
2019-03-25T17:45:28.494Z,99.50
2019-03-25T17:47:58.149Z,100.00
2019-03-25T17:50:27.748Z,100.00
2019-03-25T17:52:57.354Z,99.74
2019-03-25T17:55:26.986Z,100.00
2019-03-25T17:57:56.644Z,100.00
2019-03-25T18:01:04.342Z,100.00
2019-03-25T18:03:34.079Z,99.66
2019-03-25T18:06:03.757Z,98.40
2019-03-25T18:08:33.376Z,98.08
2019-03-25T18:11:03.026Z,98.71
2019-03-25T18:13:32.628Z,99.71
2019-03-25T18:16:02.311Z,99.92
2019-03-25T18:18:31.946Z,100.00
2019-03-25T18:21:01.600Z,99.86
2019-03-25T18:23:31.596Z,99.24
2019-03-25T18:26:01.223Z,99.35
2019-03-25T18:28:30.839Z,98.95
2019-03-25T18:31:00.471Z,99.12
2019-03-25T18:33:30.075Z,99.86
2019-03-25T18:36:00.044Z,99.49
2019-03-25T18:38:29.654Z,99.26
2019-03-25T18:40:59.938Z,99.64
2019-03-25T18:43:29.542Z,99.71
2019-03-25T18:45:59.504Z,99.10
2019-03-25T18:48:29.211Z,98.99
2019-03-25T18:50:58.838Z,99.57
2019-03-25T18:53:29.476Z,100.00
2019-03-25T18:55:59.099Z,99.75
2019-03-25T18:58:28.723Z,99.71
2019-03-25T19:00:58.356Z,100.00
2019-03-25T19:03:28.191Z,99.77
2019-03-25T19:05:57.829Z,100.00
2019-03-25T19:08:27.831Z,100.00
2019-03-25T19:10:57.491Z,100.00
2019-03-25T19:13:27.103Z,100.00
2019-03-25T19:15:56.756Z,100.00
2019-03-25T19:18:26.880Z,100.00
2019-03-25T19:20:56.764Z,100.00
2019-03-25T19:23:27.786Z,100.00
2019-03-25T19:25:59.117Z,100.00
2019-03-25T19:28:30.565Z,100.00
2019-03-25T19:31:00.195Z,100.00
2019-03-25T19:33:29.815Z,100.00
2019-03-25T19:35:59.528Z,100.00
2019-03-25T19:38:29.153Z,100.00
2019-03-25T19:40:58.792Z,100.00
2019-03-25T19:43:28.396Z,100.00
2019-03-25T19:45:58.024Z,99.96
2019-03-25T19:48:27.644Z,99.46
2019-03-25T19:50:57.269Z,100.00
2019-03-25T19:53:27.654Z,100.00
2019-03-25T19:55:58.058Z,100.00
2019-03-25T19:58:27.689Z,100.00
2019-03-25T20:00:57.706Z,100.00
2019-03-25T20:03:29.534Z,100.00
2019-03-25T20:05:59.234Z,100.00
2019-03-25T20:08:28.879Z,100.00
2019-03-25T20:10:58.532Z,100.00
2019-03-25T20:13:28.154Z,100.00
2019-03-25T20:15:57.760Z,100.00
2019-03-25T20:18:28.174Z,100.00
2019-03-25T20:20:58.041Z,100.00
2019-03-25T20:23:27.657Z,100.00
2019-03-25T20:25:57.352Z,100.00
2019-03-25T20:28:26.965Z,100.00
2019-03-25T20:30:56.585Z,100.00
2019-03-25T20:33:26.186Z,99.81
2019-03-25T20:35:55.792Z,99.80
2019-03-25T20:38:25.471Z,99.37
2019-03-25T20:40:55.060Z,99.69
2019-03-25T20:43:24.999Z,100.00
2019-03-25T20:45:54.631Z,100.00
2019-03-25T20:48:24.307Z,99.65
2019-03-25T20:50:53.882Z,99.96
2019-03-25T20:53:23.514Z,99.37
2019-03-25T20:55:53.144Z,99.36
2019-03-25T20:58:22.780Z,98.44
2019-03-25T21:00:56.988Z,98.30
2019-03-25T21:03:26.609Z,97.42
2019-03-25T21:05:57.573Z,97.30
2019-03-25T21:08:27.191Z,96.37
2019-03-25T21:10:56.843Z,97.02
2019-03-25T21:13:26.448Z,96.90
2019-03-25T21:15:56.197Z,97.45
2019-03-25T21:18:25.763Z,97.27
2019-03-25T21:20:55.417Z,97.45
2019-03-25T21:23:25.017Z,97.79
2019-03-25T21:25:54.659Z,97.67
2019-03-25T21:28:24.324Z,97.66
2019-03-25T21:30:53.913Z,98.00
2019-03-25T21:33:23.542Z,97.82
2019-03-25T21:35:53.198Z,98.81
2019-03-25T21:38:22.794Z,98.79
2019-03-25T21:40:52.460Z,98.91
2019-03-25T21:43:22.092Z,99.15
2019-03-25T21:45:51.727Z,99.90
2019-03-25T21:48:21.425Z,99.67
2019-03-25T21:50:51.029Z,99.21
2019-03-25T21:53:20.717Z,98.71
2019-03-25T21:55:50.403Z,98.49
2019-03-25T21:58:20.010Z,98.83
2019-03-25T22:00:49.733Z,98.42
2019-03-25T22:03:19.467Z,98.48
2019-03-25T22:05:49.089Z,98.56
2019-03-25T22:08:18.696Z,98.55
2019-03-25T22:10:48.323Z,98.92
2019-03-25T22:13:17.953Z,98.86
2019-03-25T22:15:47.570Z,98.91
2019-03-25T22:18:17.168Z,98.93
2019-03-25T22:20:46.798Z,98.63
2019-03-25T22:23:16.406Z,98.09
2019-03-25T22:25:46.042Z,97.90
2019-03-25T22:28:15.649Z,97.99
2019-03-25T22:30:45.279Z,97.98
2019-03-25T22:33:25.260Z,97.39
2019-03-25T22:35:46.238Z,97.59
2019-03-25T22:38:15.837Z,97.74
2019-03-25T22:40:45.465Z,97.91
2019-03-25T22:43:15.078Z,98.78
2019-03-25T22:45:44.697Z,99.21
2019-03-25T22:48:14.297Z,99.14
2019-03-25T22:50:43.917Z,98.85
2019-03-25T22:53:13.530Z,98.29
2019-03-25T22:55:43.166Z,97.83
2019-03-25T22:58:12.767Z,97.47
2019-03-25T23:00:45.569Z,97.56
2019-03-25T23:03:15.508Z,97.63
2019-03-25T23:05:45.129Z,97.68
2019-03-25T23:08:14.800Z,97.18
2019-03-25T23:10:44.423Z,97.06
2019-03-25T23:13:14.056Z,97.04
2019-03-25T23:15:43.682Z,97.17
2019-03-25T23:18:13.272Z,96.68
2019-03-25T23:20:42.868Z,95.92
2019-03-25T23:23:12.492Z,92.32
2019-03-25T23:25:42.093Z,91.14
2019-03-25T23:28:11.725Z,90.02
2019-03-25T23:30:41.335Z,90.66
2019-03-25T23:33:10.956Z,91.73
2019-03-25T23:35:40.551Z,90.97
2019-03-25T23:38:10.177Z,91.32
2019-03-25T23:40:39.781Z,90.66
2019-03-25T23:43:09.420Z,90.27
2019-03-25T23:45:39.033Z,90.00
2019-03-25T23:48:08.657Z,90.77
2019-03-25T23:50:38.257Z,91.62
2019-03-25T23:53:07.880Z,93.21
2019-03-25T23:55:37.481Z,93.38
2019-03-25T23:58:07.100Z,93.55
